createdAt,value
2018-05-24T00:00:17.627Z,99.99
2018-05-24T00:01:17.680Z,99.99
2018-05-24T00:02:17.711Z,99.99
2018-05-24T00:03:17.769Z,99.99
2018-05-24T00:04:17.788Z,99.99
2018-05-24T00:05:17.845Z,99.99
2018-05-24T00:06:17.882Z,99.99
2018-05-24T00:07:17.918Z,99.99
2018-05-24T00:08:17.964Z,99.99
2018-05-24T00:09:18.015Z,99.99
2018-05-24T00:10:18.142Z,99.99
2018-05-24T00:11:18.090Z,99.99
2018-05-24T00:12:18.156Z,99.99
2018-05-24T00:13:18.170Z,99.99
2018-05-24T00:14:18.226Z,99.99
2018-05-24T00:15:18.278Z,99.99
2018-05-24T00:16:18.307Z,99.99
2018-05-24T00:17:18.356Z,99.99
2018-05-24T00:18:18.403Z,99.99
2018-05-24T00:19:18.431Z,99.99
2018-05-24T00:20:18.473Z,99.99
2018-05-24T00:21:18.614Z,99.99
2018-05-24T00:22:18.564Z,99.99
2018-05-24T00:23:18.608Z,99.99
2018-05-24T00:24:18.636Z,99.99
2018-05-24T00:25:18.695Z,99.99
2018-05-24T00:26:18.748Z,99.99
2018-05-24T00:27:18.767Z,99.99
2018-05-24T00:28:18.912Z,99.99
2018-05-24T00:29:18.885Z,99.99
2018-05-24T00:30:18.918Z,99.99
2018-05-24T00:31:18.958Z,99.99
2018-05-24T00:32:18.987Z,99.99
2018-05-24T00:33:19.022Z,99.99
2018-05-24T00:34:19.185Z,99.99
2018-05-24T00:35:19.124Z,99.99
2018-05-24T00:36:19.168Z,99.99
2018-05-24T00:37:19.194Z,99.99
2018-05-24T00:38:19.246Z,99.99
2018-05-24T00:39:19.300Z,99.99
2018-05-24T00:40:19.335Z,99.99
2018-05-24T00:41:19.366Z,99.99
2018-05-24T00:42:19.422Z,99.99
2018-05-24T00:43:19.446Z,99.99
2018-05-24T00:44:19.603Z,99.99
2018-05-24T00:45:19.555Z,99.99
2018-05-24T00:46:19.592Z,99.99
2018-05-24T00:47:19.640Z,99.99
2018-05-24T00:48:19.671Z,99.99
2018-05-24T00:49:19.700Z,99.99
2018-05-24T00:50:19.754Z,99.99
2018-05-24T00:51:19.901Z,99.99
2018-05-24T00:52:19.849Z,99.99
2018-05-24T00:53:19.872Z,99.99
2018-05-24T00:54:19.932Z,99.99
2018-05-24T00:55:20.445Z,99.99
2018-05-24T00:56:20.002Z,99.99
2018-05-24T00:57:20.278Z,99.99
2018-05-24T00:58:20.092Z,99.99
2018-05-24T00:59:20.134Z,99.99
2018-05-24T01:00:20.172Z,99.99
2018-05-24T01:01:20.214Z,99.99
2018-05-24T01:02:20.380Z,99.99
2018-05-24T01:03:20.301Z,99.99
2018-05-24T01:04:20.345Z,99.99
2018-05-24T01:05:20.401Z,99.99
2018-05-24T01:06:20.441Z,99.99
2018-05-24T01:07:20.498Z,99.99
2018-05-24T01:08:20.512Z,99.99
2018-05-24T01:09:20.667Z,99.99
2018-05-24T01:10:20.616Z,99.99
2018-05-24T01:11:20.660Z,99.99
2018-05-24T01:12:20.698Z,99.99
2018-05-24T01:13:20.742Z,99.99
2018-05-24T01:14:20.783Z,99.99
2018-05-24T01:15:20.933Z,99.99
2018-05-24T01:16:20.872Z,99.99
2018-05-24T01:17:20.920Z,99.99
2018-05-24T01:18:20.957Z,99.99
2018-05-24T01:19:21.000Z,99.99
2018-05-24T01:20:21.046Z,99.99
2018-05-24T01:21:21.329Z,99.99
2018-05-24T01:22:21.123Z,99.99
2018-05-24T01:23:21.155Z,99.99
2018-05-24T01:24:21.221Z,99.99
2018-05-24T01:25:21.268Z,99.99
2018-05-24T01:26:21.300Z,99.99
2018-05-24T01:27:21.493Z,99.99
2018-05-24T01:28:21.402Z,99.99
2018-05-24T01:29:21.427Z,99.99
2018-05-24T01:30:21.460Z,99.99
2018-05-24T01:31:21.502Z,99.99
2018-05-24T01:32:21.640Z,99.99
2018-05-24T01:33:21.596Z,99.99
2018-05-24T01:34:21.644Z,99.99
2018-05-24T01:35:21.685Z,99.99
2018-05-24T01:36:21.727Z,99.99
2018-05-24T01:37:21.758Z,99.99
2018-05-24T01:38:21.813Z,99.99
2018-05-24T01:39:21.943Z,99.99
2018-05-24T01:40:21.895Z,99.99
2018-05-24T01:41:21.964Z,99.99
2018-05-24T01:42:21.992Z,99.99
2018-05-24T01:43:22.039Z,99.99
2018-05-24T01:44:22.054Z,99.99
2018-05-24T01:45:22.105Z,99.99
2018-05-24T01:46:22.147Z,99.99
2018-05-24T01:47:22.204Z,99.99
2018-05-24T01:48:22.244Z,99.99
2018-05-24T01:49:22.389Z,99.99
2018-05-24T01:50:22.326Z,99.99
2018-05-24T01:51:22.360Z,99.99
2018-05-24T01:52:22.401Z,99.99
2018-05-24T01:53:22.450Z,99.99
2018-05-24T01:54:22.685Z,99.99
2018-05-24T01:55:22.553Z,99.99
2018-05-24T01:56:22.588Z,99.99
2018-05-24T01:57:22.635Z,99.99
2018-05-24T01:58:22.677Z,99.99
2018-05-24T01:59:22.702Z,99.99
2018-05-24T02:00:22.739Z,99.99
2018-05-24T02:01:22.905Z,99.99
2018-05-24T02:02:22.832Z,99.99
2018-05-24T02:03:22.892Z,99.99
2018-05-24T02:04:22.918Z,99.99
2018-05-24T02:05:22.970Z,99.99
2018-05-24T02:06:23.000Z,99.99
2018-05-24T02:07:23.043Z,99.99
2018-05-24T02:08:23.094Z,99.99
2018-05-24T02:09:23.147Z,99.99
2018-05-24T02:10:23.187Z,99.99
2018-05-24T02:11:23.344Z,99.99
2018-05-24T02:12:23.279Z,99.99
2018-05-24T02:13:23.310Z,99.99
2018-05-24T02:14:23.344Z,99.99
2018-05-24T02:15:23.404Z,99.99
2018-05-24T02:16:23.442Z,99.99
2018-05-24T02:17:23.676Z,99.99
2018-05-24T02:18:23.528Z,99.99
2018-05-24T02:19:23.577Z,99.99
2018-05-24T02:20:23.612Z,99.99
2018-05-24T02:21:23.655Z,99.99
2018-05-24T02:22:23.813Z,99.99
2018-05-24T02:23:23.735Z,99.99
2018-05-24T02:24:23.779Z,99.99
2018-05-24T02:25:23.831Z,99.99
2018-05-24T02:26:23.870Z,99.99
2018-05-24T02:27:23.925Z,99.99
2018-05-24T02:28:23.949Z,99.99
2018-05-24T02:29:24.166Z,99.99
2018-05-24T02:30:24.053Z,99.99
2018-05-24T02:31:24.076Z,99.99
2018-05-24T02:32:24.126Z,99.99
2018-05-24T02:33:24.173Z,99.99
2018-05-24T02:34:24.315Z,99.99
2018-05-24T02:35:24.262Z,99.99
2018-05-24T02:36:24.311Z,99.99
2018-05-24T02:37:24.345Z,99.99
2018-05-24T02:38:24.383Z,99.99
2018-05-24T02:39:24.433Z,99.99
2018-05-24T02:40:24.464Z,99.99
2018-05-24T02:41:24.512Z,99.99
2018-05-24T02:42:24.553Z,99.99
2018-05-24T02:43:24.588Z,99.99
2018-05-24T02:44:24.643Z,99.99
2018-05-24T02:45:24.772Z,99.99
2018-05-24T02:46:24.731Z,99.99
2018-05-24T02:47:24.771Z,99.99
2018-05-24T02:48:24.822Z,99.99
2018-05-24T02:49:24.860Z,99.99
2018-05-24T02:50:24.882Z,99.99
2018-05-24T02:51:25.037Z,99.99
2018-05-24T02:52:24.987Z,99.99
2018-05-24T02:53:25.034Z,99.99
2018-05-24T02:54:25.063Z,99.99
2018-05-24T02:55:25.113Z,99.99
2018-05-24T02:56:25.344Z,99.99
2018-05-24T02:57:25.216Z,99.99
2018-05-24T02:58:25.243Z,99.99
2018-05-24T02:59:25.276Z,99.99
2018-05-24T03:00:25.341Z,99.99
2018-05-24T03:01:25.374Z,99.99
2018-05-24T03:02:25.520Z,99.99
2018-05-24T03:03:25.453Z,99.99
2018-05-24T03:04:25.570Z,99.99
2018-05-24T03:05:25.533Z,99.99
2018-05-24T03:06:25.575Z,99.99
2018-05-24T03:07:25.648Z,99.99
2018-05-24T03:08:25.769Z,99.99
2018-05-24T03:09:25.729Z,99.99
2018-05-24T03:10:25.751Z,99.99
2018-05-24T03:11:25.783Z,99.99
2018-05-24T03:12:25.828Z,99.99
2018-05-24T03:13:25.871Z,99.99
2018-05-24T03:14:26.232Z,99.99
2018-05-24T03:15:25.960Z,99.99
2018-05-24T03:16:26.010Z,99.99
2018-05-24T03:17:26.067Z,99.99
2018-05-24T03:18:26.103Z,99.99
2018-05-24T03:19:26.234Z,99.99
2018-05-24T03:20:26.174Z,99.99
2018-05-24T03:21:26.226Z,99.99
2018-05-24T03:22:26.256Z,99.99
2018-05-24T03:23:26.315Z,99.99
2018-05-24T03:24:26.341Z,99.99
2018-05-24T03:25:26.604Z,99.99
2018-05-24T03:26:26.439Z,99.99
2018-05-24T03:27:26.465Z,99.99
2018-05-24T03:28:26.519Z,99.99
2018-05-24T03:29:26.557Z,99.99
2018-05-24T03:30:26.619Z,99.99
2018-05-24T03:31:26.649Z,99.99
2018-05-24T03:32:26.690Z,99.99
2018-05-24T03:33:26.737Z,99.99
2018-05-24T03:34:26.774Z,99.99
2018-05-24T03:35:26.926Z,99.99
2018-05-24T03:36:26.864Z,99.99
2018-05-24T03:37:26.909Z,99.99
2018-05-24T03:38:26.943Z,99.99
2018-05-24T03:39:26.985Z,99.99
2018-05-24T03:40:27.039Z,99.99
2018-05-24T03:41:27.213Z,99.99
2018-05-24T03:42:27.121Z,99.99
2018-05-24T03:43:27.157Z,99.99
2018-05-24T03:44:27.194Z,99.99
2018-05-24T03:45:27.253Z,99.99
2018-05-24T03:46:27.380Z,99.99
2018-05-24T03:47:27.537Z,99.99
2018-05-24T03:48:27.388Z,99.99
2018-05-24T03:49:27.426Z,99.99
2018-05-24T03:50:27.458Z,99.99
2018-05-24T03:51:27.488Z,99.99
2018-05-24T03:52:27.552Z,99.99
2018-05-24T03:53:27.590Z,99.99
2018-05-24T03:54:27.618Z,99.99
2018-05-24T03:55:27.681Z,99.99
2018-05-24T03:56:27.728Z,99.99
2018-05-24T03:57:27.854Z,99.99
2018-05-24T03:58:27.796Z,99.99
2018-05-24T03:59:27.849Z,99.99
2018-05-24T04:00:27.874Z,99.99
2018-05-24T04:01:27.940Z,99.99
2018-05-24T04:02:28.171Z,99.99
2018-05-24T04:03:28.006Z,99.99
2018-05-24T04:04:28.045Z,99.99
2018-05-24T04:05:28.090Z,99.99
2018-05-24T04:06:28.133Z,99.99
2018-05-24T04:07:28.192Z,99.99
2018-05-24T04:08:28.231Z,99.99
2018-05-24T04:09:28.272Z,99.99
2018-05-24T04:10:28.329Z,99.99
2018-05-24T04:11:28.345Z,99.99
2018-05-24T04:12:28.494Z,99.99
2018-05-24T04:13:28.444Z,99.99
2018-05-24T04:14:28.489Z,99.99
2018-05-24T04:15:28.530Z,99.99
2018-05-24T04:16:28.573Z,99.99
2018-05-24T04:17:28.610Z,99.99
2018-05-24T04:18:28.913Z,99.99
2018-05-24T04:19:28.700Z,99.99
2018-05-24T04:20:28.744Z,99.99
2018-05-24T04:21:28.763Z,99.99
2018-05-24T04:22:28.812Z,99.99
2018-05-24T04:23:28.868Z,99.99
2018-05-24T04:24:29.003Z,99.99
2018-05-24T04:25:28.945Z,99.99
2018-05-24T04:26:28.981Z,99.99
2018-05-24T04:27:29.035Z,99.99
2018-05-24T04:28:29.065Z,99.99
2018-05-24T04:29:29.106Z,99.99
2018-05-24T04:30:29.349Z,99.99
2018-05-24T04:31:29.197Z,99.99
2018-05-24T04:32:29.260Z,99.99
2018-05-24T04:33:29.285Z,99.99
2018-05-24T04:34:29.321Z,99.99
2018-05-24T04:35:29.361Z,99.99
2018-05-24T04:36:29.410Z,99.99
2018-05-24T04:37:29.446Z,99.99
2018-05-24T04:38:29.482Z,99.99
2018-05-24T04:39:29.551Z,99.99
2018-05-24T04:40:29.676Z,99.99
2018-05-24T04:41:29.628Z,99.99
2018-05-24T04:42:29.651Z,99.99
2018-05-24T04:43:29.714Z,99.99
2018-05-24T04:44:29.740Z,99.99
2018-05-24T04:45:30.026Z,99.99
2018-05-24T04:46:29.832Z,99.99
2018-05-24T04:47:29.879Z,99.99
2018-05-24T04:48:29.927Z,99.99
2018-05-24T04:49:29.948Z,99.99
2018-05-24T04:50:29.996Z,99.99
2018-05-24T04:51:30.132Z,99.99
2018-05-24T04:52:30.099Z,99.99
2018-05-24T04:53:30.135Z,99.99
2018-05-24T04:54:30.159Z,99.99
2018-05-24T04:55:30.214Z,99.99
2018-05-24T04:56:30.256Z,99.99
2018-05-24T04:57:30.298Z,99.99
2018-05-24T04:58:30.346Z,99.99
2018-05-24T04:59:30.384Z,99.99
2018-05-24T05:00:30.429Z,99.99
2018-05-24T05:01:30.725Z,99.99
2018-05-24T05:02:30.600Z,99.99
2018-05-24T05:03:30.535Z,99.99
2018-05-24T05:04:30.595Z,99.99
2018-05-24T05:05:30.635Z,99.99
2018-05-24T05:06:30.676Z,99.99
2018-05-24T05:07:30.713Z,99.99
2018-05-24T05:08:31.021Z,99.99
2018-05-24T05:09:30.797Z,99.99
2018-05-24T05:10:30.840Z,99.99
2018-05-24T05:11:30.893Z,99.99
2018-05-24T05:12:30.930Z,99.99
2018-05-24T05:13:31.194Z,99.99
2018-05-24T05:14:31.011Z,99.99
2018-05-24T05:15:31.055Z,99.99
2018-05-24T05:16:31.088Z,99.99
2018-05-24T05:17:31.124Z,99.99
2018-05-24T05:18:31.160Z,99.99
2018-05-24T05:19:31.449Z,99.99
2018-05-24T05:20:31.271Z,99.99
2018-05-24T05:21:31.291Z,99.99
2018-05-24T05:22:31.349Z,99.99
2018-05-24T05:23:31.380Z,99.99
2018-05-24T05:24:31.415Z,99.99
2018-05-24T05:25:31.560Z,99.99
2018-05-24T05:26:31.669Z,99.99
2018-05-24T05:27:31.553Z,99.99
2018-05-24T05:28:31.581Z,99.99
2018-05-24T05:29:31.636Z,99.99
2018-05-24T05:30:31.694Z,99.99
2018-05-24T05:31:31.734Z,99.99
2018-05-24T05:32:31.756Z,99.99
2018-05-24T05:33:31.798Z,99.99
2018-05-24T05:34:31.830Z,99.99
2018-05-24T05:35:31.884Z,99.99
2018-05-24T05:36:32.134Z,99.99
2018-05-24T05:37:31.973Z,99.99
2018-05-24T05:38:32.020Z,99.99
2018-05-24T05:39:32.039Z,99.99
2018-05-24T05:40:32.093Z,99.99
2018-05-24T05:41:32.235Z,99.99
2018-05-24T05:42:32.170Z,99.99
2018-05-24T05:43:32.208Z,99.99
2018-05-24T05:44:32.259Z,99.99
2018-05-24T05:45:32.287Z,99.99
2018-05-24T05:46:32.343Z,99.99
2018-05-24T05:47:32.475Z,99.99
2018-05-24T05:48:32.428Z,99.99
2018-05-24T05:49:32.467Z,99.99
2018-05-24T05:50:32.500Z,99.99
2018-05-24T05:51:32.556Z,99.99
2018-05-24T05:52:32.599Z,99.99
2018-05-24T05:53:32.642Z,99.99
2018-05-24T05:54:32.677Z,99.99
2018-05-24T05:55:32.728Z,99.99
2018-05-24T05:56:32.758Z,99.99
2018-05-24T05:57:32.890Z,99.99
2018-05-24T05:58:33.027Z,99.99
2018-05-24T05:59:32.884Z,99.99
2018-05-24T06:00:32.925Z,99.99
2018-05-24T06:01:33.040Z,99.99
2018-05-24T06:02:33.010Z,99.99
2018-05-24T06:03:33.038Z,99.99
2018-05-24T06:04:33.201Z,99.99
2018-05-24T06:05:33.153Z,99.99
2018-05-24T06:06:33.164Z,99.99
2018-05-24T06:07:33.216Z,99.99
2018-05-24T06:08:33.273Z,99.99
2018-05-24T06:09:33.511Z,99.99
2018-05-24T06:10:33.348Z,99.99
2018-05-24T06:11:33.396Z,99.99
2018-05-24T06:12:33.427Z,99.99
2018-05-24T06:13:33.462Z,99.99
2018-05-24T06:14:33.501Z,99.99
2018-05-24T06:15:33.681Z,99.99
2018-05-24T06:16:33.583Z,99.99
2018-05-24T06:17:33.641Z,99.99
2018-05-24T06:18:33.675Z,99.99
2018-05-24T06:19:33.721Z,99.99
2018-05-24T06:20:33.766Z,99.99
2018-05-24T06:21:33.812Z,99.99
2018-05-24T06:22:33.839Z,99.99
2018-05-24T06:23:33.887Z,99.99
2018-05-24T06:24:33.936Z,99.99
2018-05-24T06:25:34.216Z,99.99
2018-05-24T06:26:34.113Z,99.99
2018-05-24T06:27:34.040Z,99.99
2018-05-24T06:28:34.230Z,99.99
2018-05-24T06:29:34.133Z,99.99
2018-05-24T06:30:34.188Z,99.99
2018-05-24T06:31:34.200Z,99.99
2018-05-24T06:32:34.448Z,99.99
2018-05-24T06:33:34.290Z,99.99
2018-05-24T06:34:34.340Z,99.99
2018-05-24T06:35:34.386Z,99.99
2018-05-24T06:36:34.429Z,99.99
2018-05-24T06:37:34.570Z,99.99
2018-05-24T06:38:34.506Z,99.99
2018-05-24T06:39:34.538Z,99.99
2018-05-24T06:40:34.673Z,99.99
2018-05-24T06:41:34.649Z,99.99
2018-05-24T06:42:34.675Z,99.99
2018-05-24T06:43:34.901Z,99.99
2018-05-24T06:44:34.743Z,99.99
2018-05-24T06:45:34.776Z,99.99
2018-05-24T06:46:34.927Z,99.99
2018-05-24T06:47:34.864Z,99.99
2018-05-24T06:48:34.914Z,99.99
2018-05-24T06:49:35.058Z,99.99
2018-05-24T06:50:34.996Z,99.99
2018-05-24T06:51:35.064Z,99.99
2018-05-24T06:52:35.095Z,99.99
2018-05-24T06:53:35.133Z,99.99
2018-05-24T06:54:35.172Z,99.99
2018-05-24T06:55:35.417Z,99.99
2018-05-24T06:56:35.248Z,99.99
2018-05-24T06:57:35.302Z,99.99
2018-05-24T06:58:35.353Z,99.99
2018-05-24T06:59:35.357Z,99.99
2018-05-24T07:00:35.425Z,99.99
2018-05-24T07:01:35.553Z,99.99
2018-05-24T07:02:35.506Z,99.99
2018-05-24T07:03:35.528Z,99.99
2018-05-24T07:04:35.562Z,99.99
2018-05-24T07:05:35.629Z,99.99
2018-05-24T07:06:35.651Z,99.99
2018-05-24T07:07:35.893Z,99.99
2018-05-24T07:08:35.736Z,99.99
2018-05-24T07:09:35.792Z,99.99
2018-05-24T07:10:35.835Z,99.99
2018-05-24T07:11:35.856Z,99.99
2018-05-24T07:12:35.999Z,99.99
2018-05-24T07:13:35.932Z,99.99
2018-05-24T07:14:35.982Z,99.99
2018-05-24T07:15:36.046Z,99.99
2018-05-24T07:16:36.085Z,99.99
2018-05-24T07:17:36.532Z,99.99
2018-05-24T07:18:36.444Z,99.99
2018-05-24T07:19:36.219Z,99.99
2018-05-24T07:20:36.228Z,99.99
2018-05-24T07:21:36.288Z,99.99
2018-05-24T07:22:36.334Z,99.99
2018-05-24T07:23:36.376Z,99.99
2018-05-24T07:24:36.411Z,99.99
2018-05-24T07:25:36.443Z,99.99
2018-05-24T07:26:36.470Z,99.99
2018-05-24T07:27:36.529Z,99.99
2018-05-24T07:28:36.682Z,99.99
2018-05-24T07:29:36.612Z,99.99
2018-05-24T07:30:36.655Z,99.99
2018-05-24T07:31:36.711Z,99.99
2018-05-24T07:32:36.715Z,99.99
2018-05-24T07:33:36.778Z,99.99
2018-05-24T07:34:36.829Z,99.99
2018-05-24T07:35:36.851Z,99.99
2018-05-24T07:36:36.892Z,99.99
2018-05-24T07:37:36.952Z,99.99
2018-05-24T07:38:37.089Z,99.99
2018-05-24T07:39:37.049Z,99.99
2018-05-24T07:40:37.057Z,99.99
2018-05-24T07:41:37.116Z,99.99
2018-05-24T07:42:37.140Z,99.99
2018-05-24T07:43:37.184Z,99.99
2018-05-24T07:44:37.223Z,99.99
2018-05-24T07:45:37.265Z,99.99
2018-05-24T07:46:37.322Z,99.99
2018-05-24T07:47:37.344Z,99.99
2018-05-24T07:48:37.654Z,99.99
2018-05-24T07:49:37.438Z,99.99
2018-05-24T07:50:37.459Z,99.99
2018-05-24T07:51:37.540Z,99.99
2018-05-24T07:52:37.537Z,99.99
2018-05-24T07:53:37.697Z,99.99
2018-05-24T07:54:37.632Z,99.99
2018-05-24T07:55:37.665Z,99.99
2018-05-24T07:56:37.725Z,99.99
2018-05-24T07:57:37.764Z,99.99
2018-05-24T07:58:37.814Z,99.99
2018-05-24T07:59:38.078Z,99.99
2018-05-24T08:00:37.895Z,99.99
2018-05-24T08:01:37.996Z,99.99
2018-05-24T08:02:37.971Z,99.99
2018-05-24T08:03:38.016Z,99.99
2018-05-24T08:04:38.162Z,99.99
2018-05-24T08:05:38.105Z,99.99
2018-05-24T08:06:38.143Z,99.99
2018-05-24T08:07:38.179Z,99.99
2018-05-24T08:08:38.264Z,99.99
2018-05-24T08:09:38.268Z,99.99
2018-05-24T08:10:38.301Z,99.99
2018-05-24T08:11:38.445Z,99.99
2018-05-24T08:12:38.381Z,99.99
2018-05-24T08:13:38.422Z,99.99
2018-05-24T08:14:38.465Z,99.99
2018-05-24T08:15:38.499Z,99.99
2018-05-24T08:16:38.798Z,99.99
2018-05-24T08:17:38.572Z,99.99
2018-05-24T08:18:38.620Z,99.99
2018-05-24T08:19:38.672Z,99.99
2018-05-24T08:20:38.701Z,99.99
2018-05-24T08:21:38.751Z,99.99
2018-05-24T08:22:38.791Z,99.99
2018-05-24T08:23:38.843Z,99.99
2018-05-24T08:24:38.875Z,99.99
2018-05-24T08:25:38.908Z,99.99
2018-05-24T08:26:39.064Z,99.99
2018-05-24T08:27:39.213Z,99.99
2018-05-24T08:28:39.035Z,99.99
2018-05-24T08:29:39.088Z,99.99
2018-05-24T08:30:39.126Z,99.99
2018-05-24T08:31:39.171Z,99.99
2018-05-24T08:32:39.211Z,99.99
2018-05-24T08:33:39.350Z,99.99
2018-05-24T08:34:39.272Z,99.99
2018-05-24T08:35:39.327Z,99.99
2018-05-24T08:36:39.364Z,99.99
2018-05-24T08:37:39.401Z,99.99
2018-05-24T08:38:39.688Z,99.99
2018-05-24T08:39:39.502Z,99.99
2018-05-24T08:40:39.597Z,99.99
2018-05-24T08:41:39.615Z,99.99
2018-05-24T08:42:39.616Z,99.99
2018-05-24T08:43:39.661Z,99.99
2018-05-24T08:44:39.694Z,99.99
2018-05-24T08:45:39.824Z,99.99
2018-05-24T08:46:39.773Z,99.99
2018-05-24T08:47:39.808Z,99.99
2018-05-24T08:48:39.868Z,99.99
2018-05-24T08:49:39.902Z,99.99
2018-05-24T08:50:39.952Z,99.99
2018-05-24T08:51:39.977Z,99.99
2018-05-24T08:52:40.020Z,99.99
2018-05-24T08:53:40.068Z,99.99
2018-05-24T08:54:40.112Z,99.99
2018-05-24T08:55:40.259Z,99.99
2018-05-24T08:56:40.192Z,99.99
2018-05-24T08:57:40.245Z,99.99
2018-05-24T08:58:40.264Z,99.99
2018-05-24T08:59:40.314Z,99.99
2018-05-24T09:00:40.351Z,99.99
2018-05-24T09:01:40.586Z,99.99
2018-05-24T09:02:40.523Z,99.99
2018-05-24T09:03:40.491Z,99.99
2018-05-24T09:04:40.523Z,99.99
2018-05-24T09:05:40.557Z,99.99
2018-05-24T09:06:40.596Z,99.99
2018-05-24T09:07:40.633Z,99.99
2018-05-24T09:08:40.689Z,99.99
2018-05-24T09:09:40.712Z,99.99
2018-05-24T09:10:40.765Z,99.99
2018-05-24T09:11:40.813Z,99.99
2018-05-24T09:12:40.930Z,99.99
2018-05-24T09:13:40.891Z,99.99
2018-05-24T09:14:40.931Z,99.99
2018-05-24T09:15:40.969Z,99.99
2018-05-24T09:16:41.006Z,99.99
2018-05-24T09:17:41.241Z,99.99
2018-05-24T09:18:41.082Z,99.99
2018-05-24T09:19:41.139Z,99.99
2018-05-24T09:20:41.183Z,99.99
2018-05-24T09:21:41.252Z,99.99
2018-05-24T09:22:41.236Z,99.99
2018-05-24T09:23:41.300Z,99.99
2018-05-24T09:24:41.334Z,99.99
2018-05-24T09:25:41.384Z,99.99
2018-05-24T09:26:41.412Z,99.99
2018-05-24T09:27:41.558Z,99.99
2018-05-24T09:28:41.498Z,99.99
2018-05-24T09:29:41.553Z,99.99
2018-05-24T09:30:41.566Z,99.99
2018-05-24T09:31:41.628Z,99.99
2018-05-24T09:32:41.656Z,99.99
2018-05-24T09:33:41.792Z,99.99
2018-05-24T09:34:41.750Z,99.99
2018-05-24T09:35:41.787Z,99.99
2018-05-24T09:36:41.828Z,99.99
2018-05-24T09:37:41.872Z,99.99
2018-05-24T09:38:41.907Z,99.99
2018-05-24T09:39:42.182Z,99.99
2018-05-24T09:40:41.977Z,99.99
2018-05-24T09:41:42.025Z,99.99
2018-05-24T09:42:42.079Z,99.99
2018-05-24T09:43:42.114Z,99.99
2018-05-24T09:44:42.260Z,99.99
2018-05-24T09:45:42.184Z,99.99
2018-05-24T09:46:42.237Z,99.99
2018-05-24T09:47:42.281Z,99.99
2018-05-24T09:48:42.318Z,99.99
2018-05-24T09:49:42.359Z,99.99
2018-05-24T09:50:42.408Z,99.99
2018-05-24T09:51:42.545Z,99.99
2018-05-24T09:52:42.473Z,99.99
2018-05-24T09:53:42.508Z,99.99
2018-05-24T09:54:42.564Z,99.99
2018-05-24T09:55:42.615Z,99.99
2018-05-24T09:56:42.641Z,99.99
2018-05-24T09:57:42.693Z,99.99
2018-05-24T09:58:42.724Z,99.99
2018-05-24T09:59:42.764Z,99.99
2018-05-24T10:00:42.798Z,99.99
2018-05-24T10:01:42.953Z,99.99
2018-05-24T10:02:42.892Z,99.99
2018-05-24T10:03:42.916Z,99.99
2018-05-24T10:04:42.998Z,99.99
2018-05-24T10:05:43.008Z,99.99
2018-05-24T10:06:43.051Z,99.99
2018-05-24T10:07:43.083Z,99.99
2018-05-24T10:08:43.132Z,99.99
2018-05-24T10:09:43.185Z,99.99
2018-05-24T10:10:43.297Z,99.99
2018-05-24T10:11:43.365Z,99.99
2018-05-24T10:12:43.290Z,99.99
2018-05-24T10:13:43.330Z,99.99
2018-05-24T10:14:43.388Z,99.99
2018-05-24T10:15:43.419Z,99.99
2018-05-24T10:16:43.453Z,99.99
2018-05-24T10:17:43.701Z,99.99
2018-05-24T10:18:43.540Z,99.99
2018-05-24T10:19:43.587Z,99.99
2018-05-24T10:20:43.628Z,99.99
2018-05-24T10:21:43.668Z,99.99
2018-05-24T10:22:43.798Z,99.99
2018-05-24T10:23:43.754Z,99.99
2018-05-24T10:24:43.800Z,99.99
2018-05-24T10:25:43.833Z,99.99
2018-05-24T10:26:43.876Z,99.99
2018-05-24T10:27:43.912Z,99.99
2018-05-24T10:28:43.944Z,99.99
2018-05-24T10:29:44.007Z,99.99
2018-05-24T10:30:44.049Z,99.99
2018-05-24T10:31:44.083Z,99.99
2018-05-24T10:32:44.110Z,99.99
2018-05-24T10:33:44.517Z,99.99
2018-05-24T10:34:44.208Z,99.99
2018-05-24T10:35:44.263Z,99.99
2018-05-24T10:36:44.299Z,99.99
2018-05-24T10:37:44.337Z,99.99
2018-05-24T10:38:44.383Z,99.99
2018-05-24T10:39:44.427Z,99.99
2018-05-24T10:40:44.807Z,99.99
2018-05-24T10:41:44.491Z,99.99
2018-05-24T10:42:44.539Z,99.99
2018-05-24T10:43:44.588Z,99.99
2018-05-24T10:44:44.642Z,99.99
2018-05-24T10:45:44.673Z,99.99
2018-05-24T10:46:44.818Z,99.99
2018-05-24T10:47:44.769Z,99.99
2018-05-24T10:48:44.792Z,99.99
2018-05-24T10:49:44.844Z,99.99
2018-05-24T10:50:44.889Z,99.99
2018-05-24T10:51:44.917Z,99.99
2018-05-24T10:52:45.185Z,99.99
2018-05-24T10:53:45.016Z,99.99
2018-05-24T10:54:45.069Z,99.99
2018-05-24T10:55:45.111Z,99.99
2018-05-24T10:56:45.220Z,99.99
2018-05-24T10:57:45.275Z,99.99
2018-05-24T10:58:45.244Z,99.99
2018-05-24T10:59:45.281Z,99.99
2018-05-24T11:00:45.322Z,99.99
2018-05-24T11:01:45.369Z,99.99
2018-05-24T11:02:45.422Z,99.99
2018-05-24T11:03:45.471Z,99.99
2018-05-24T11:04:45.590Z,99.99
2018-05-24T11:05:45.559Z,99.99
2018-05-24T11:06:45.603Z,99.99
2018-05-24T11:07:45.633Z,99.99
2018-05-24T11:08:45.668Z,99.99
2018-05-24T11:09:45.725Z,99.99
2018-05-24T11:10:45.873Z,99.99
2018-05-24T11:11:45.842Z,99.99
2018-05-24T11:12:45.852Z,99.99
2018-05-24T11:13:45.893Z,99.99
2018-05-24T11:14:45.939Z,99.99
2018-05-24T11:15:45.985Z,99.99
2018-05-24T11:16:46.144Z,99.99
2018-05-24T11:17:46.084Z,99.99
2018-05-24T11:18:46.130Z,99.99
2018-05-24T11:19:46.181Z,99.99
2018-05-24T11:20:46.214Z,99.99
2018-05-24T11:21:46.310Z,99.99
2018-05-24T11:22:46.419Z,99.99
2018-05-24T11:23:46.365Z,99.99
2018-05-24T11:24:46.411Z,99.99
2018-05-24T11:25:46.461Z,99.99
2018-05-24T11:26:46.482Z,99.99
2018-05-24T11:27:46.546Z,99.99
2018-05-24T11:28:46.589Z,99.99
2018-05-24T11:29:46.643Z,99.99
2018-05-24T11:30:46.667Z,99.99
2018-05-24T11:31:46.769Z,99.99
2018-05-24T11:32:46.870Z,99.99
2018-05-24T11:33:46.812Z,99.99
2018-05-24T11:34:46.860Z,99.99
2018-05-24T11:35:46.896Z,99.99
2018-05-24T11:36:46.957Z,99.99
2018-05-24T11:37:47.001Z,99.99
2018-05-24T11:38:47.046Z,99.99
2018-05-24T11:39:47.093Z,99.99
2018-05-24T11:40:47.141Z,99.99
2018-05-24T11:41:47.173Z,99.99
2018-05-24T11:42:47.231Z,99.99
2018-05-24T11:43:47.268Z,99.99
2018-05-24T11:44:47.309Z,99.99
2018-05-24T11:45:47.381Z,99.99
2018-05-24T11:46:47.405Z,99.99
2018-05-24T11:47:47.575Z,99.99
2018-05-24T11:48:47.500Z,99.99
2018-05-24T11:49:47.555Z,99.99
2018-05-24T11:50:47.600Z,99.99
2018-05-24T11:51:47.661Z,99.99
2018-05-24T11:52:47.680Z,99.99
2018-05-24T11:53:47.747Z,99.99
2018-05-24T11:54:47.786Z,99.99
2018-05-24T11:55:47.831Z,99.99
2018-05-24T11:56:47.885Z,99.99
2018-05-24T11:57:47.921Z,99.99
2018-05-24T11:58:48.082Z,99.99
2018-05-24T11:59:48.028Z,99.99
2018-05-24T12:00:48.057Z,99.99
2018-05-24T12:01:48.135Z,99.99
2018-05-24T12:02:48.180Z,99.99
2018-05-24T12:03:48.225Z,99.99
2018-05-24T12:04:48.359Z,99.99
2018-05-24T12:05:48.304Z,99.99
2018-05-24T12:06:48.366Z,99.99
2018-05-24T12:07:48.419Z,99.99
2018-05-24T12:08:48.455Z,99.99
2018-05-24T12:09:48.576Z,99.99
2018-05-24T12:10:48.737Z,99.99
2018-05-24T12:11:48.605Z,99.99
2018-05-24T12:12:48.648Z,99.99
2018-05-24T12:13:48.673Z,99.99
2018-05-24T12:14:48.737Z,99.99
2018-05-24T12:15:48.765Z,99.99
2018-05-24T12:16:49.015Z,99.99
2018-05-24T12:17:48.862Z,99.99
2018-05-24T12:18:48.929Z,99.99
2018-05-24T12:19:48.940Z,99.99
2018-05-24T12:20:49.005Z,99.99
2018-05-24T12:21:49.041Z,99.99
2018-05-24T12:22:49.184Z,99.99
2018-05-24T12:23:49.235Z,99.99
2018-05-24T12:24:49.193Z,99.99
2018-05-24T12:25:49.236Z,99.99
2018-05-24T12:26:49.296Z,99.99
2018-05-24T12:27:49.331Z,99.99
2018-05-24T12:28:49.467Z,99.99
2018-05-24T12:29:49.457Z,96.41
2018-05-24T12:30:49.456Z,94.92
2018-05-24T12:31:49.506Z,93.18
2018-05-24T12:32:49.583Z,93.51
2018-05-24T12:33:49.611Z,92.41
2018-05-24T12:34:49.778Z,94.24
2018-05-24T12:35:49.706Z,92.98
2018-05-24T12:36:49.767Z,94.72
2018-05-24T12:37:49.807Z,92.65
2018-05-24T12:38:49.864Z,92.01
2018-05-24T12:39:49.900Z,92.40
2018-05-24T12:40:49.947Z,91.77
2018-05-24T12:41:50.107Z,89.89
2018-05-24T12:42:50.057Z,89.84
2018-05-24T12:43:50.123Z,90.66
2018-05-24T12:44:50.261Z,89.94
2018-05-24T12:45:50.214Z,90.13
2018-05-24T12:46:50.257Z,90.52
2018-05-24T12:47:50.313Z,90.91
2018-05-24T12:48:50.379Z,90.77
2018-05-24T12:49:50.417Z,92.36
2018-05-24T12:50:50.482Z,94.00
2018-05-24T12:51:50.503Z,92.89
2018-05-24T12:52:50.560Z,92.26